Latest  Newer  Older  Last 2 hours animation  Current image  Latest image 
Rain/snow radar  Infrared sat images 
Real-time lightning map

All time is UTC (add 2 hours to UTC in wintertime, 3 hours to UTC in DST for Latvia local time)

2019/11/14 10:20 EVRA 141020Z 18012KT 9999 -DZ BKN014 BKN019 OVC024 12/10 Q1008 R18/290195 NOSIG
2019/11/14 10:20 EVLA 141020Z AUTO 26012KT 9999 FEW006/// BKN008/// OVC011/// 08/08 Q1009
2019/11/14 10:20 EVVA 141020Z AUTO 24013KT 9999 SCT013 BKN020 OVC032 10/09 Q1006
2019/11/14 10:20 EYKA 141020Z 17007KT 140V210 5000 BR OVC009 12/11 Q1011 R08/290095
2019/11/14 10:20 EYPA 141020Z 28006KT 230V010 9999 OVC010 08/07 Q1010 R19/1///95
2019/11/14 10:20 EYSA 141020Z 21012KT 9999 OVC030 10/08 Q1010 R14L/29//95 R14R/29//95 BLU NOSIG
2019/11/14 10:20 EYVI 141020Z 17012KT 8000 OVC008 10/09 Q1012 R19/2///95 NOSIG
2019/11/14 09:50 EEKA 140950Z 16010KT 6000 SCT007 OVC030 10/09 Q1002
2019/11/14 09:50 EEKE 140950Z 17014KT 9999 BKN023 OVC035 11/09 Q1003
2019/11/14 09:50 EEPU 140950Z 17009KT 130V240 8000 BKN/// 12/10 Q1005
2019/11/14 10:20 EETN 141020Z 18012KT 150V210 8000 OVC011 11/09 Q1005 R08/290195 NOSIG
2019/11/14 09:50 EETU 140950Z 17011KT 9999 OVC017 11/08 Q1009
   RIGA AIRPORT     EVRA               56 55N  023 58E   10   X     T          6 LV
   LIEPAJA INTL     EVLA        26406  56 31N  021 06E    4   X                8 LV
   VENTPILS         EVVA               57 21N  021 33E    6   X                8 LV
   KAUNAS           EYKA               54 54N  023 55E   77   X     T          6 LT
   PALANGA INTL     EYPA               55 55N  021 03E   10   X                6 LT
   SIAULIAI INTL    EYSA               55 54N  023 24E  135   X     T          6 LT
   VILNIUS INTL     EYVI        26730  54 38N  025 17E  197   X     T          6 LT
   KARDLA           EEKA        26116  58 59N  022 50E    4   X                8 EE
   KURESSAARE       EEKE               58 14N  022 31E    4   X                8 EE
   PARNU            EEPU               58 25N  024 28E   14   X                8 EE
   TALLINN          EETN        26038  59 24N  024 49E   40   X     T          8 EE
   TARTU            EETU               58 19N  026 41E   67   X                8 EE

cloud coverage image from sat24.com and METAR data from weather.noaa.gov